Hazleton, PA

1:38 PM EST en Diciembre 20, 2014 (GMT -0500)
Third Base Luncheonette | Change Station
CLOSE
Current Station
Estación meteorológica personal
Location: Hazleton, PA
Altura: 1785 ft
Estaciones meteorológicas cercanas

Alt 1785 ft 40.97 °N, 75.97 °W | Updated 3 seconds ago

Nublado
Nublado
26.3 ° F
Sensación térmica 20 ° F
N
5.0
Viento Variable Viento desde NO
Gusts 6.0 mph

Hoy
Alta -- | Baja -- ° F
--% Posibilidad de precipitaciones
Ayer
Alta -- | Baja -- ° F
Precip. -- pul
7:24 AM 4:38 PM
Creciente menguante, 2% visible
Presión 30.24 pul
Visibilidad 10.0 Millas
Nubes Nublado 2400 ft
Vientos helados 20 ° F
Punto de rocío 22 ° F
Humedad 85%
Precipitaciones 0.00 pul
Espesor de la nieve No disponible.
UV 1 de una escala de 12
Polen .10 de una escala de 12
Calidad del aire No disponible.
Flu Activity No disponible.
METAR KAVP 201754Z AUTO 34006KT 10SM OVC024 M01/M07 A3021 RMK AO2 SLP240 60000 T10061072 11006 21011 58014

More Conditions Fewer Conditions

Presión 30.24 pul
Visibilidad 10.0 Millas
Nubes Nublado 2400 ft
Vientos helados 20 ° F
Punto de rocío 22 ° F
Humedad 85%
Precipitaciones 0.00 pul
Espesor de la nieve No disponible.
UV 1 de una escala de 12
Polen .10 de una escala de 12
Calidad del aire No disponible.
Flu Activity No disponible.
METAR KAVP 201754Z AUTO 34006KT 10SM OVC024 M01/M07 A3021 RMK AO2 SLP240 60000 T10061072 11006 21011 58014

More Conditions Fewer Conditions

10-Day Weather Forecast

Almanac

Astronomía

Dec. 20, 2014 Salida Puesta
Hora real
Crepúsculo civil
Crepúsculo náutico
Crepúsculo astronómico
Luna
Horas de luz
Horas de luz
Tomorrow will be .
, % of the Moon is Illuminated

Extremos de hoy

Máximos del estado Bajos del estado

Community

WunderPhotos

Upload Photos

1,779,244 ¡fotos cargadas!

WunderBlogs® & News

Nearby

Calidad del aire

  Calidad del aire Índice AQ Contaminante
Not available.

Grosos de nieve

Estación Profundido Altura

Actividad de terremotos

Ciudad Distance Mag. Tiempo y dato
Magnitud mínima muestra es 2,5.

Temperaturas de aguas costeras

Lugar Temperatura

Estaciones meteorológicas cercanas